createdAt,value
2019-04-14T00:02:35.852Z,79.81
2019-04-14T00:05:21.079Z,79.59
2019-04-14T00:08:06.792Z,79.54
2019-04-14T00:10:52.854Z,79.83
2019-04-14T00:13:37.541Z,79.20
2019-04-14T00:16:22.788Z,78.57
2019-04-14T00:19:08.743Z,78.67
2019-04-14T00:21:54.400Z,78.93
2019-04-14T00:24:40.046Z,79.35
2019-04-14T00:27:25.885Z,79.12
2019-04-14T00:30:11.894Z,79.88
2019-04-14T00:32:57.428Z,79.96
2019-04-14T00:35:42.786Z,79.50
2019-04-14T00:38:28.064Z,79.36
2019-04-14T00:41:13.625Z,79.68
2019-04-14T00:43:59.235Z,79.45
2019-04-14T00:46:45.151Z,78.69
2019-04-14T00:49:31.166Z,78.75
2019-04-14T00:52:16.846Z,78.59
2019-04-14T00:55:03.291Z,78.88
2019-04-14T00:57:48.663Z,78.64
2019-04-14T01:00:34.187Z,78.86
2019-04-14T01:03:19.879Z,78.99
2019-04-14T01:06:05.337Z,79.36
2019-04-14T01:08:51.162Z,79.39
2019-04-14T01:11:35.883Z,79.61
2019-04-14T01:14:21.263Z,79.45
2019-04-14T01:17:06.850Z,79.05
2019-04-14T01:19:52.671Z,79.05
2019-04-14T01:22:38.094Z,78.75
2019-04-14T01:25:22.408Z,78.73
2019-04-14T01:28:06.967Z,79.07
2019-04-14T01:30:52.325Z,78.78
2019-04-14T01:33:37.853Z,78.79
2019-04-14T01:36:23.485Z,78.42
2019-04-14T01:39:08.924Z,79.25
2019-04-14T01:41:54.380Z,79.48
2019-04-14T01:44:39.637Z,78.92
2019-04-14T01:47:24.889Z,79.05
2019-04-14T01:50:10.537Z,79.11
2019-04-14T01:52:54.665Z,79.67
2019-04-14T01:55:39.488Z,79.62
2019-04-14T01:58:25.056Z,79.86
2019-04-14T02:01:10.550Z,79.42
2019-04-14T02:03:54.961Z,79.09
2019-04-14T02:06:39.900Z,79.17
2019-04-14T02:09:25.134Z,78.85
2019-04-14T02:12:10.572Z,78.65
2019-04-14T02:14:56.260Z,78.26
2019-04-14T02:17:41.640Z,77.54
2019-04-14T02:20:27.149Z,77.53
2019-04-14T02:23:12.540Z,77.45
2019-04-14T02:25:57.948Z,77.54
2019-04-14T02:28:42.308Z,77.81
2019-04-14T02:31:52.885Z,78.47
2019-04-14T02:34:41.700Z,78.78
2019-04-14T02:37:26.368Z,78.44
2019-04-14T02:42:56.307Z,78.18
2019-04-14T02:45:58.766Z,78.11
2019-04-14T02:48:44.149Z,78.08
2019-04-14T02:51:23.285Z,78.11
2019-04-14T02:53:57.746Z,78.20
2019-04-14T02:56:58.898Z,78.75
2019-04-14T02:59:45.266Z,78.80
2019-04-14T03:05:09.428Z,77.54
2019-04-14T03:08:04.277Z,77.18
2019-04-14T03:10:42.147Z,77.03
2019-04-14T03:13:35.268Z,77.24
2019-04-14T03:18:58.179Z,77.41
2019-04-14T03:21:49.301Z,78.46
2019-04-14T03:24:31.918Z,77.51
2019-04-14T03:27:35.481Z,77.24
2019-04-14T03:30:23.346Z,77.18
2019-04-14T03:36:06.666Z,76.99
2019-04-14T03:38:50.208Z,77.47
2019-04-14T03:41:24.142Z,77.52
2019-04-14T03:43:54.928Z,77.94
2019-04-14T03:46:50.693Z,77.65
2019-04-14T03:49:40.791Z,76.82
2019-04-14T03:52:27.609Z,76.77
2019-04-14T03:54:57.032Z,77.56
2019-04-14T03:57:29.607Z,77.38
2019-04-14T04:00:15.864Z,77.44
2019-04-14T04:03:00.587Z,77.80
2019-04-14T04:05:45.634Z,77.68
2019-04-14T04:08:31.303Z,77.34
2019-04-14T04:11:15.760Z,77.62
2019-04-14T04:14:00.689Z,77.62
2019-04-14T04:16:46.107Z,77.81
2019-04-14T04:19:31.557Z,76.51
2019-04-14T04:22:17.200Z,75.66
2019-04-14T04:25:02.963Z,75.61
2019-04-14T04:27:48.362Z,76.00
2019-04-14T04:30:34.063Z,75.78
2019-04-14T04:33:19.896Z,75.95
2019-04-14T04:36:05.287Z,76.19
2019-04-14T04:38:50.992Z,76.61
2019-04-14T04:41:36.436Z,76.94
2019-04-14T04:44:20.924Z,77.14
2019-04-14T04:47:05.766Z,77.27
2019-04-14T04:49:51.239Z,77.73
2019-04-14T04:52:36.489Z,77.74
2019-04-14T04:55:22.007Z,77.43
2019-04-14T04:58:07.787Z,76.91
2019-04-14T05:00:54.170Z,77.45
2019-04-14T05:03:38.586Z,77.59
2019-04-14T05:06:59.060Z,77.43
2019-04-14T05:09:44.830Z,77.41
2019-04-14T05:12:29.044Z,77.03
2019-04-14T05:15:14.015Z,76.87
2019-04-14T05:17:58.226Z,76.67
2019-04-14T05:20:44.113Z,76.26
2019-04-14T05:23:29.820Z,75.35
2019-04-14T05:26:15.497Z,74.81
2019-04-14T05:29:01.397Z,73.81
2019-04-14T05:31:46.838Z,72.65
2019-04-14T05:34:32.630Z,71.90
2019-04-14T05:37:18.225Z,70.59
2019-04-14T05:40:05.903Z,69.35
2019-04-14T05:42:51.513Z,68.37
2019-04-14T05:45:37.341Z,67.30
2019-04-14T05:48:22.860Z,67.07
2019-04-14T05:51:08.524Z,66.52
2019-04-14T05:53:53.109Z,65.33
2019-04-14T05:56:39.147Z,64.45
2019-04-14T05:59:24.678Z,64.25
2019-04-14T06:02:09.648Z,63.90
2019-04-14T06:04:55.000Z,63.18
2019-04-14T06:07:39.985Z,63.74
2019-04-14T06:10:25.063Z,62.99
2019-04-14T06:13:11.706Z,60.95
2019-04-14T06:15:55.659Z,58.69
2019-04-14T06:18:40.262Z,59.96
2019-04-14T06:21:24.820Z,60.02
2019-04-14T06:24:09.477Z,59.91
2019-04-14T06:26:53.831Z,59.81
2019-04-14T06:29:38.592Z,60.40
2019-04-14T06:32:23.136Z,59.68
2019-04-14T06:35:08.321Z,59.66
2019-04-14T06:37:53.148Z,60.93
2019-04-14T06:40:37.823Z,60.44
2019-04-14T06:43:22.371Z,61.05
2019-04-14T06:46:06.958Z,61.07
2019-04-14T06:48:51.379Z,61.11
2019-04-14T06:51:35.762Z,60.80
2019-04-14T06:54:20.840Z,60.61
2019-04-14T06:57:05.705Z,62.78
2019-04-14T06:59:50.967Z,63.38
2019-04-14T07:02:35.733Z,60.17
2019-04-14T07:05:20.185Z,60.45
2019-04-14T07:08:04.642Z,60.94
2019-04-14T07:10:49.402Z,61.19
2019-04-14T07:13:34.011Z,59.56
2019-04-14T07:16:18.722Z,59.90
2019-04-14T07:19:03.688Z,62.09
2019-04-14T07:21:48.558Z,62.40
2019-04-14T07:24:33.314Z,63.01
2019-04-14T07:27:17.971Z,62.28
2019-04-14T07:30:04.077Z,64.94
2019-04-14T07:32:48.531Z,62.08
2019-04-14T07:35:33.202Z,62.94
2019-04-14T07:38:17.634Z,64.41
2019-04-14T07:41:02.709Z,63.11
2019-04-14T07:43:47.676Z,62.95
2019-04-14T07:46:32.138Z,64.31
2019-04-14T07:49:16.781Z,63.87
2019-04-14T07:52:01.341Z,63.13
2019-04-14T07:54:46.302Z,63.81
2019-04-14T07:57:30.978Z,63.61
2019-04-14T08:00:16.042Z,62.99
2019-04-14T08:03:00.651Z,63.49
2019-04-14T08:05:45.352Z,61.26
2019-04-14T08:08:29.916Z,65.49
2019-04-14T08:11:14.491Z,67.26
2019-04-14T08:13:58.987Z,67.91
2019-04-14T08:16:43.988Z,68.31
2019-04-14T08:19:28.956Z,68.72
2019-04-14T08:22:13.714Z,67.40
2019-04-14T08:24:58.784Z,67.28
2019-04-14T08:27:43.241Z,67.66
2019-04-14T08:30:28.001Z,68.16
2019-04-14T08:33:12.761Z,68.99
2019-04-14T08:35:57.900Z,68.19
2019-04-14T08:38:42.903Z,67.88
2019-04-14T08:41:27.470Z,69.11
2019-04-14T08:44:12.017Z,69.11
2019-04-14T08:46:56.672Z,68.30
2019-04-14T08:49:41.460Z,68.66
2019-04-14T08:52:25.788Z,66.76
2019-04-14T08:55:10.545Z,65.54
2019-04-14T08:57:55.338Z,65.33
2019-04-14T09:00:39.557Z,66.35
2019-04-14T09:03:24.222Z,67.34
2019-04-14T09:06:08.878Z,68.25
2019-04-14T09:08:53.238Z,69.39
2019-04-14T09:11:39.121Z,69.70
2019-04-14T09:14:23.987Z,69.69
2019-04-14T09:17:08.302Z,69.19
2019-04-14T09:19:53.213Z,68.62
2019-04-14T09:22:37.754Z,69.58
2019-04-14T09:25:22.518Z,70.54
2019-04-14T09:28:07.588Z,70.21
2019-04-14T09:30:52.295Z,70.07
2019-04-14T09:33:36.805Z,71.00
2019-04-14T09:36:21.468Z,70.70
2019-04-14T09:39:06.170Z,71.18
2019-04-14T09:41:50.720Z,71.17
2019-04-14T09:44:35.134Z,71.92
2019-04-14T09:47:19.897Z,72.39
2019-04-14T09:50:05.371Z,72.22
2019-04-14T09:52:49.783Z,72.23
2019-04-14T09:55:34.233Z,72.01
2019-04-14T09:58:18.769Z,71.85
2019-04-14T10:01:04.009Z,72.04
2019-04-14T10:03:48.059Z,72.01
2019-04-14T10:06:32.612Z,73.13
2019-04-14T10:09:17.169Z,72.78
2019-04-14T10:12:02.033Z,73.88
2019-04-14T10:14:46.384Z,73.98
2019-04-14T10:17:30.870Z,75.28
2019-04-14T10:20:15.501Z,76.05
2019-04-14T10:23:00.160Z,76.92
2019-04-14T10:25:44.508Z,77.53
2019-04-14T10:28:29.166Z,77.80
2019-04-14T10:31:13.929Z,77.73
2019-04-14T10:33:58.792Z,77.58
2019-04-14T10:36:43.452Z,78.00
2019-04-14T10:39:28.113Z,78.10
2019-04-14T10:42:13.192Z,78.53
2019-04-14T10:44:57.841Z,79.64
2019-04-14T10:47:42.137Z,80.17
2019-04-14T10:50:31.040Z,78.93
2019-04-14T10:53:12.814Z,79.25
2019-04-14T10:55:57.193Z,79.45
2019-04-14T10:58:42.877Z,78.94
2019-04-14T11:01:28.765Z,79.28
2019-04-14T11:04:13.431Z,78.45
2019-04-14T11:06:58.109Z,78.07
2019-04-14T11:09:42.847Z,77.41
2019-04-14T11:12:27.913Z,78.02
2019-04-14T11:15:15.599Z,78.45
2019-04-14T11:18:00.205Z,78.05
2019-04-14T11:20:44.964Z,76.90
2019-04-14T11:23:30.656Z,78.17
2019-04-14T11:26:15.099Z,78.83
2019-04-14T11:28:59.759Z,79.02
2019-04-14T11:31:44.623Z,78.50
2019-04-14T11:34:29.494Z,78.98
2019-04-14T11:37:14.044Z,78.43
2019-04-14T11:39:58.843Z,78.51
2019-04-14T11:42:52.121Z,78.28
2019-04-14T11:45:31.401Z,77.24
2019-04-14T11:48:16.289Z,76.94
2019-04-14T11:51:01.233Z,76.33
2019-04-14T11:53:46.009Z,76.41
2019-04-14T11:56:30.172Z,77.43
2019-04-14T11:59:14.602Z,76.88
2019-04-14T12:01:58.846Z,76.83
2019-04-14T12:04:43.813Z,76.47
2019-04-14T12:07:28.574Z,75.46
2019-04-14T12:10:13.335Z,76.82
2019-04-14T12:12:57.789Z,77.86
2019-04-14T12:15:42.449Z,77.99
2019-04-14T12:18:26.933Z,77.91
2019-04-14T12:21:11.766Z,79.27
2019-04-14T12:23:56.828Z,79.55
2019-04-14T12:26:41.602Z,78.85
2019-04-14T12:29:26.799Z,78.12
2019-04-14T12:32:12.767Z,79.82
2019-04-14T12:34:57.666Z,79.62
2019-04-14T12:37:42.591Z,80.21
2019-04-14T12:40:27.126Z,80.27
2019-04-14T12:43:11.306Z,80.79
2019-04-14T12:45:56.014Z,80.13
2019-04-14T12:48:40.862Z,79.88
2019-04-14T12:51:25.578Z,79.28
2019-04-14T12:54:10.342Z,79.37
2019-04-14T12:56:55.027Z,80.60
2019-04-14T12:59:40.116Z,79.53
2019-04-14T13:02:24.963Z,80.80
2019-04-14T13:05:10.104Z,79.69
2019-04-14T13:07:54.194Z,80.53
2019-04-14T13:10:38.578Z,80.28
2019-04-14T13:13:23.104Z,79.65
2019-04-14T13:16:07.384Z,80.98
2019-04-14T13:18:52.074Z,79.66
2019-04-14T13:21:36.939Z,80.27
2019-04-14T13:24:21.289Z,80.09
2019-04-14T13:27:06.152Z,78.80
2019-04-14T13:29:50.889Z,79.15
2019-04-14T13:32:36.464Z,79.33
2019-04-14T13:35:21.768Z,80.19
2019-04-14T13:38:06.119Z,79.92
2019-04-14T13:40:50.985Z,79.22
2019-04-14T13:43:35.595Z,80.27
2019-04-14T13:46:20.610Z,78.94
2019-04-14T13:49:05.225Z,80.45
2019-04-14T13:51:49.721Z,79.94
2019-04-14T13:54:33.870Z,79.50
2019-04-14T13:57:18.733Z,79.50
2019-04-14T14:00:12.096Z,79.84
2019-04-14T14:02:56.732Z,79.98
2019-04-14T14:05:43.425Z,81.37
2019-04-14T14:08:27.457Z,80.48
2019-04-14T14:11:12.479Z,81.06
2019-04-14T14:13:57.135Z,81.87
2019-04-14T14:16:41.813Z,83.34
2019-04-14T14:19:26.254Z,82.22
2019-04-14T14:22:10.822Z,82.38
2019-04-14T14:24:55.362Z,82.25
2019-04-14T14:27:40.329Z,81.14
2019-04-14T14:30:24.886Z,81.27
2019-04-14T14:33:09.646Z,82.30
2019-04-14T14:35:54.367Z,82.00
2019-04-14T14:38:38.883Z,82.21
2019-04-14T14:41:23.731Z,81.50
2019-04-14T14:44:08.392Z,81.17
2019-04-14T14:46:53.457Z,82.08
2019-04-14T14:49:37.803Z,81.91
2019-04-14T14:52:22.124Z,82.08
2019-04-14T14:55:09.071Z,82.02
2019-04-14T14:57:53.884Z,81.28
2019-04-14T15:00:38.186Z,80.59
2019-04-14T15:03:23.055Z,81.40
2019-04-14T15:06:07.401Z,81.01
2019-04-14T15:08:51.963Z,79.86
2019-04-14T15:11:36.925Z,81.05
2019-04-14T15:14:21.996Z,81.22
2019-04-14T15:17:08.384Z,81.41
2019-04-14T15:19:53.566Z,82.11
2019-04-14T15:22:38.226Z,82.20
2019-04-14T15:25:23.297Z,81.70
2019-04-14T15:28:08.019Z,81.66
2019-04-14T15:30:52.715Z,82.50
2019-04-14T15:33:39.305Z,81.33
2019-04-14T15:36:23.670Z,81.69
2019-04-14T15:39:08.126Z,81.86
2019-04-14T15:41:52.785Z,81.53
2019-04-14T15:44:37.751Z,81.07
2019-04-14T15:47:23.085Z,80.98
2019-04-14T15:50:07.993Z,81.37
2019-04-14T15:52:53.782Z,81.63
2019-04-14T15:55:38.752Z,82.27
2019-04-14T15:58:26.597Z,81.60
2019-04-14T16:01:11.259Z,81.85
2019-04-14T16:03:56.048Z,81.61
2019-04-14T16:06:40.527Z,81.59
2019-04-14T16:09:26.458Z,81.44
2019-04-14T16:12:11.319Z,82.25
2019-04-14T16:14:56.586Z,81.93
2019-04-14T16:17:41.348Z,82.39
2019-04-14T16:20:26.520Z,82.74
2019-04-14T16:23:12.207Z,83.33
2019-04-14T16:25:56.655Z,82.78
2019-04-14T16:28:41.105Z,83.21
2019-04-14T16:31:27.921Z,82.78
2019-04-14T16:34:13.097Z,83.35
2019-04-14T16:36:58.160Z,83.35
2019-04-14T16:39:43.244Z,83.94
2019-04-14T16:42:27.895Z,83.87
2019-04-14T16:45:12.971Z,83.92
2019-04-14T16:47:57.925Z,84.02
2019-04-14T16:50:42.708Z,84.10
2019-04-14T16:53:27.353Z,84.07
2019-04-14T16:56:11.891Z,84.02
2019-04-14T16:58:56.249Z,84.28
2019-04-14T17:01:40.810Z,84.81
2019-04-14T17:04:25.427Z,84.70
2019-04-14T17:07:10.330Z,85.07
2019-04-14T17:10:01.717Z,85.11
2019-04-14T17:15:52.879Z,85.51
2019-04-14T17:18:38.048Z,85.85
2019-04-14T17:21:23.119Z,85.76
2019-04-14T17:24:16.406Z,85.96
2019-04-14T17:26:54.281Z,85.98
2019-04-14T17:29:39.146Z,85.78
2019-04-14T17:32:24.316Z,86.21
2019-04-14T17:35:10.203Z,86.21
2019-04-14T17:37:54.861Z,85.92
2019-04-14T17:40:39.832Z,85.78
2019-04-14T17:43:24.695Z,85.48
2019-04-14T17:46:11.401Z,85.21
2019-04-14T17:48:55.962Z,85.27
2019-04-14T17:51:45.441Z,85.71
2019-04-14T17:54:30.076Z,85.77
2019-04-14T17:57:14.648Z,86.00
2019-04-14T18:00:00.138Z,85.38
2019-04-14T18:02:46.011Z,86.00
2019-04-14T18:05:30.468Z,85.69
2019-04-14T18:08:16.217Z,85.74
2019-04-14T18:11:01.118Z,86.54
2019-04-14T18:13:46.753Z,86.82
2019-04-14T18:16:33.301Z,86.61
2019-04-14T18:19:17.757Z,87.38
2019-04-14T18:22:02.825Z,87.53
2019-04-14T18:24:47.487Z,88.01
2019-04-14T18:27:32.244Z,87.78
2019-04-14T18:30:16.983Z,87.48
2019-04-14T18:33:01.844Z,87.13
2019-04-14T18:35:47.044Z,87.45
2019-04-14T18:38:31.909Z,87.93
2019-04-14T18:41:16.258Z,88.10
2019-04-14T18:44:02.453Z,87.75
2019-04-14T18:46:46.929Z,87.34
2019-04-14T18:49:32.746Z,87.01
2019-04-14T18:52:19.714Z,86.92
2019-04-14T18:55:05.192Z,87.38
2019-04-14T18:57:49.957Z,87.37
2019-04-14T19:00:35.189Z,87.46
2019-04-14T19:03:20.093Z,87.07
2019-04-14T19:06:05.485Z,85.97
2019-04-14T19:08:51.102Z,85.79
2019-04-14T19:11:35.661Z,85.81
2019-04-14T19:14:20.682Z,86.10
2019-04-14T19:17:05.540Z,85.69
2019-04-14T19:20:00.871Z,84.92
2019-04-14T19:22:36.976Z,85.11
2019-04-14T19:25:21.763Z,84.59
2019-04-14T19:28:06.493Z,84.25
2019-04-14T19:30:51.823Z,83.73
2019-04-14T19:33:37.330Z,83.76
2019-04-14T19:36:22.124Z,83.85
2019-04-14T19:39:09.384Z,83.80
2019-04-14T19:41:54.478Z,83.59
2019-04-14T19:44:39.652Z,83.58
2019-04-14T19:47:24.266Z,83.42
2019-04-14T19:50:08.828Z,83.32
2019-04-14T19:52:55.972Z,83.60
2019-04-14T19:55:42.752Z,83.59
2019-04-14T19:58:27.825Z,83.61
2019-04-14T20:01:12.676Z,83.73
2019-04-14T20:03:57.644Z,83.95
2019-04-14T20:06:42.203Z,84.59
2019-04-14T20:09:26.861Z,85.02
2019-04-14T20:13:59.338Z,86.49
2019-04-14T20:16:25.574Z,86.73
2019-04-14T20:18:51.801Z,86.74
2019-04-14T20:21:17.823Z,86.89
2019-04-14T20:23:44.157Z,86.48
2019-04-14T20:26:10.073Z,86.21
2019-04-14T20:28:36.198Z,85.80
2019-04-14T20:31:02.632Z,85.44
2019-04-14T20:33:28.684Z,85.00
2019-04-14T20:35:54.514Z,84.74
2019-04-14T20:38:21.844Z,84.52
2019-04-14T20:40:47.845Z,84.41
2019-04-14T20:43:14.174Z,84.19
2019-04-14T20:45:40.200Z,84.05
2019-04-14T20:48:06.361Z,83.82
2019-04-14T20:50:32.512Z,83.57
2019-04-14T20:52:58.679Z,83.29
2019-04-14T20:55:24.927Z,83.29
2019-04-14T20:57:51.132Z,83.22
2019-04-14T21:00:20.638Z,83.14
2019-04-14T21:02:51.684Z,82.83
2019-04-14T21:05:17.808Z,82.56
2019-04-14T21:07:43.924Z,82.83
2019-04-14T21:10:10.353Z,82.99
2019-04-14T21:12:36.278Z,82.88
2019-04-14T21:15:05.063Z,82.78
2019-04-14T21:17:31.175Z,82.92
2019-04-14T21:19:57.058Z,82.43
2019-04-14T21:22:23.031Z,82.44
2019-04-14T21:24:49.363Z,82.33
2019-04-14T21:27:15.278Z,82.56
2019-04-14T21:29:41.164Z,82.65
2019-04-14T21:32:07.119Z,82.79
2019-04-14T21:34:33.042Z,82.74
2019-04-14T21:36:58.901Z,82.58
2019-04-14T21:39:24.776Z,82.45
2019-04-14T21:41:50.804Z,82.37
2019-04-14T21:44:16.819Z,82.33
2019-04-14T21:46:42.742Z,82.77
2019-04-14T21:49:08.660Z,83.24
2019-04-14T21:51:34.585Z,83.54
2019-04-14T21:54:00.504Z,83.45
2019-04-14T21:56:26.624Z,83.18
2019-04-14T21:58:52.548Z,83.00
2019-04-14T22:01:23.503Z,83.10
2019-04-14T22:03:49.513Z,83.09
2019-04-14T22:06:15.433Z,82.90
2019-04-14T22:08:41.357Z,82.77
2019-04-14T22:11:07.368Z,83.00
2019-04-14T22:13:33.192Z,82.97
2019-04-14T22:15:59.120Z,82.88
2019-04-14T22:18:25.112Z,83.08
2019-04-14T22:20:51.360Z,83.11
2019-04-14T22:23:17.433Z,82.82
2019-04-14T22:25:43.405Z,83.01
2019-04-14T22:28:09.424Z,83.22
2019-04-14T22:30:35.450Z,83.25
2019-04-14T22:33:01.472Z,83.35
2019-04-14T22:35:27.493Z,83.25
2019-04-14T22:37:53.520Z,83.54
2019-04-14T22:40:19.549Z,84.11
2019-04-14T22:42:45.499Z,84.09
2019-04-14T22:45:11.587Z,83.97
2019-04-14T22:47:37.505Z,83.69
2019-04-14T22:50:04.958Z,83.97
2019-04-14T22:52:30.979Z,83.96
2019-04-14T22:54:57.028Z,83.89
2019-04-14T22:57:23.006Z,83.77
2019-04-14T22:59:48.951Z,83.71
2019-04-14T23:02:15.070Z,84.06
2019-04-14T23:04:41.092Z,84.14
2019-04-14T23:07:06.912Z,84.16
2019-04-14T23:09:32.935Z,84.15
2019-04-14T23:11:58.865Z,84.14
2019-04-14T23:14:24.772Z,84.22
2019-04-14T23:16:50.695Z,84.04
2019-04-14T23:19:16.817Z,84.09
2019-04-14T23:21:43.047Z,83.87
2019-04-14T23:24:09.276Z,84.16
2019-04-14T23:26:35.502Z,84.42
2019-04-14T23:29:01.629Z,84.38
2019-04-14T23:31:27.751Z,84.23
2019-04-14T23:33:53.882Z,84.18
2019-04-14T23:36:19.929Z,84.19
2019-04-14T23:38:46.024Z,84.30
2019-04-14T23:41:12.153Z,84.53
2019-04-14T23:43:39.112Z,84.77
2019-04-14T23:46:05.633Z,84.59
2019-04-14T23:48:32.529Z,84.88
2019-04-14T23:50:58.934Z,84.59
2019-04-14T23:53:25.565Z,84.28
2019-04-14T23:55:51.971Z,84.24
2019-04-14T23:58:18.939Z,84.20
